sensor_id;sensor_type;location;lat;lon;timestamp;temperature;humidity
52765;DHT22;38650;44.536;18.664;2024-01-15T00:01:55;1.80;99.90
52765;DHT22;38650;44.536;18.664;2024-01-15T00:04:21;1.80;99.90
52765;DHT22;38650;44.536;18.664;2024-01-15T00:06:47;1.90;99.90
52765;DHT22;38650;44.536;18.664;2024-01-15T00:09:13;1.90;99.90
52765;DHT22;38650;44.536;18.664;2024-01-15T00:11:38;1.90;99.90
52765;DHT22;38650;44.536;18.664;2024-01-15T00:14:04;1.90;99.90
52765;DHT22;38650;44.536;18.664;2024-01-15T00:16:30;1.90;99.90
52765;DHT22;38650;44.536;18.664;2024-01-15T00:18:55;1.90;99.90
52765;DHT22;38650;44.536;18.664;2024-01-15T00:21:21;1.90;99.90
52765;DHT22;38650;44.536;18.664;2024-01-15T00:23:46;1.90;99.90
52765;DHT22;38650;44.536;18.664;2024-01-15T00:26:12;1.90;99.90
52765;DHT22;38650;44.536;18.664;2024-01-15T00:28:38;1.80;99.90
52765;DHT22;38650;44.536;18.664;2024-01-15T00:31:05;1.80;99.90
52765;DHT22;38650;44.536;18.664;2024-01-15T00:33:30;1.80;99.90
52765;DHT22;38650;44.536;18.664;2024-01-15T00:35:56;1.80;99.90
52765;DHT22;38650;44.536;18.664;2024-01-15T00:38:22;1.80;99.90
52765;DHT22;38650;44.536;18.664;2024-01-15T00:40:47;1.70;99.90
52765;DHT22;38650;44.536;18.664;2024-01-15T00:43:13;1.70;99.90
52765;DHT22;38650;44.536;18.664;2024-01-15T00:45:39;1.70;99.90
52765;DHT22;38650;44.536;18.664;2024-01-15T00:48:05;1.60;99.90
52765;DHT22;38650;44.536;18.664;2024-01-15T00:50:31;1.60;99.90
52765;DHT22;38650;44.536;18.664;2024-01-15T00:52:56;1.50;99.90
52765;DHT22;38650;44.536;18.664;2024-01-15T00:55:22;1.50;99.90
52765;DHT22;38650;44.536;18.664;2024-01-15T00:57:48;1.50;99.90
52765;DHT22;38650;44.536;18.664;2024-01-15T01:00:14;1.50;99.90
52765;DHT22;38650;44.536;18.664;2024-01-15T01:02:39;1.50;99.90
52765;DHT22;38650;44.536;18.664;2024-01-15T01:05:05;1.40;99.90
52765;DHT22;38650;44.536;18.664;2024-01-15T01:07:31;1.30;99.90
52765;DHT22;38650;44.536;18.664;2024-01-15T01:09:56;1.20;99.90
52765;DHT22;38650;44.536;18.664;2024-01-15T01:12:22;1.20;99.90
52765;DHT22;38650;44.536;18.664;2024-01-15T01:14:48;1.30;99.90
52765;DHT22;38650;44.536;18.664;2024-01-15T01:17:13;1.40;99.90
52765;DHT22;38650;44.536;18.664;2024-01-15T01:19:39;1.40;99.90
52765;DHT22;38650;44.536;18.664;2024-01-15T01:22:04;1.40;99.90
52765;DHT22;38650;44.536;18.664;2024-01-15T01:24:30;1.40;99.90
52765;DHT22;38650;44.536;18.664;2024-01-15T01:26:56;1.40;99.90
52765;DHT22;38650;44.536;18.664;2024-01-15T01:29:21;1.40;99.90
52765;DHT22;38650;44.536;18.664;2024-01-15T01:31:48;1.40;99.90
52765;DHT22;38650;44.536;18.664;2024-01-15T01:34:15;1.40;99.90
52765;DHT22;38650;44.536;18.664;2024-01-15T01:36:42;1.50;99.90
52765;DHT22;38650;44.536;18.664;2024-01-15T01:39:08;1.50;99.90
52765;DHT22;38650;44.536;18.664;2024-01-15T01:41:35;1.50;99.90
52765;DHT22;38650;44.536;18.664;2024-01-15T01:44:00;1.40;99.90
52765;DHT22;38650;44.536;18.664;2024-01-15T01:46:27;1.40;99.90
52765;DHT22;38650;44.536;18.664;2024-01-15T01:48:54;1.40;99.90
52765;DHT22;38650;44.536;18.664;2024-01-15T01:51:22;1.40;99.90
52765;DHT22;38650;44.536;18.664;2024-01-15T01:53:48;1.40;99.90
52765;DHT22;38650;44.536;18.664;2024-01-15T01:56:15;1.40;99.90
52765;DHT22;38650;44.536;18.664;2024-01-15T01:58:41;1.30;99.90
52765;DHT22;38650;44.536;18.664;2024-01-15T02:01:07;1.30;99.90
52765;DHT22;38650;44.536;18.664;2024-01-15T02:03:33;1.30;99.90
52765;DHT22;38650;44.536;18.664;2024-01-15T02:06:00;1.40;99.90
52765;DHT22;38650;44.536;18.664;2024-01-15T02:08:26;1.30;99.90
52765;DHT22;38650;44.536;18.664;2024-01-15T02:10:52;1.30;99.90
52765;DHT22;38650;44.536;18.664;2024-01-15T02:13:18;1.30;99.90
52765;DHT22;38650;44.536;18.664;2024-01-15T02:15:44;1.30;99.90
52765;DHT22;38650;44.536;18.664;2024-01-15T02:18:10;1.40;99.90
52765;DHT22;38650;44.536;18.664;2024-01-15T02:20:36;1.40;99.90
52765;DHT22;38650;44.536;18.664;2024-01-15T02:23:12;1.40;99.90
52765;DHT22;38650;44.536;18.664;2024-01-15T02:25:45;1.40;99.90
52765;DHT22;38650;44.536;18.664;2024-01-15T02:28:13;1.40;99.90
52765;DHT22;38650;44.536;18.664;2024-01-15T02:30:40;1.40;99.90
52765;DHT22;38650;44.536;18.664;2024-01-15T02:33:07;1.40;99.90
52765;DHT22;38650;44.536;18.664;2024-01-15T02:35:33;1.50;99.90
52765;DHT22;38650;44.536;18.664;2024-01-15T02:37:59;1.50;99.90
52765;DHT22;38650;44.536;18.664;2024-01-15T02:40:25;1.50;99.90
52765;DHT22;38650;44.536;18.664;2024-01-15T02:42:50;1.50;99.90
52765;DHT22;38650;44.536;18.664;2024-01-15T02:45:17;1.50;99.90
52765;DHT22;38650;44.536;18.664;2024-01-15T02:47:42;1.50;99.90
52765;DHT22;38650;44.536;18.664;2024-01-15T02:50:08;1.50;99.90
52765;DHT22;38650;44.536;18.664;2024-01-15T02:52:34;1.40;99.90
52765;DHT22;38650;44.536;18.664;2024-01-15T02:54:59;1.40;99.90
52765;DHT22;38650;44.536;18.664;2024-01-15T02:57:25;1.40;99.90
52765;DHT22;38650;44.536;18.664;2024-01-15T02:59:51;1.50;99.90
52765;DHT22;38650;44.536;18.664;2024-01-15T03:02:16;1.50;99.90
52765;DHT22;38650;44.536;18.664;2024-01-15T03:04:45;1.50;99.90
52765;DHT22;38650;44.536;18.664;2024-01-15T03:07:11;1.50;99.90
52765;DHT22;38650;44.536;18.664;2024-01-15T03:09:36;1.50;99.90
52765;DHT22;38650;44.536;18.664;2024-01-15T03:12:02;1.50;99.90
52765;DHT22;38650;44.536;18.664;2024-01-15T03:14:28;1.40;99.90
52765;DHT22;38650;44.536;18.664;2024-01-15T03:16:54;1.30;99.90
52765;DHT22;38650;44.536;18.664;2024-01-15T03:19:19;1.30;99.90
52765;DHT22;38650;44.536;18.664;2024-01-15T03:21:45;1.30;99.90
52765;DHT22;38650;44.536;18.664;2024-01-15T03:24:11;1.30;99.90
52765;DHT22;38650;44.536;18.664;2024-01-15T03:26:36;1.30;99.90
52765;DHT22;38650;44.536;18.664;2024-01-15T03:29:02;1.30;99.90
52765;DHT22;38650;44.536;18.664;2024-01-15T03:31:28;1.30;99.90
52765;DHT22;38650;44.536;18.664;2024-01-15T03:33:53;1.30;99.90
52765;DHT22;38650;44.536;18.664;2024-01-15T03:36:19;1.40;99.90
52765;DHT22;38650;44.536;18.664;2024-01-15T03:38:45;1.30;99.90
52765;DHT22;38650;44.536;18.664;2024-01-15T03:41:10;1.40;99.90
52765;DHT22;38650;44.536;18.664;2024-01-15T03:43:36;1.40;99.90
52765;DHT22;38650;44.536;18.664;2024-01-15T03:46:02;1.40;99.90
52765;DHT22;38650;44.536;18.664;2024-01-15T03:48:28;1.40;99.90
52765;DHT22;38650;44.536;18.664;2024-01-15T03:50:53;1.40;99.90
52765;DHT22;38650;44.536;18.664;2024-01-15T03:53:19;1.40;99.90
52765;DHT22;38650;44.536;18.664;2024-01-15T03:55:45;1.40;99.90
52765;DHT22;38650;44.536;18.664;2024-01-15T03:58:10;1.40;99.90
52765;DHT22;38650;44.536;18.664;2024-01-15T04:00:36;1.40;99.90
52765;DHT22;38650;44.536;18.664;2024-01-15T04:03:02;1.40;99.90
52765;DHT22;38650;44.536;18.664;2024-01-15T04:05:28;1.50;99.90
52765;DHT22;38650;44.536;18.664;2024-01-15T04:07:53;1.40;99.90
52765;DHT22;38650;44.536;18.664;2024-01-15T04:10:19;1.40;99.90
52765;DHT22;38650;44.536;18.664;2024-01-15T04:12:44;1.40;99.90
52765;DHT22;38650;44.536;18.664;2024-01-15T04:15:13;1.40;99.90
52765;DHT22;38650;44.536;18.664;2024-01-15T04:17:39;1.50;99.90
52765;DHT22;38650;44.536;18.664;2024-01-15T04:20:05;1.50;99.90
52765;DHT22;38650;44.536;18.664;2024-01-15T04:22:32;1.50;99.90
52765;DHT22;38650;44.536;18.664;2024-01-15T04:24:58;1.60;99.90
52765;DHT22;38650;44.536;18.664;2024-01-15T04:27:24;1.70;99.90
52765;DHT22;38650;44.536;18.664;2024-01-15T04:29:50;1.70;99.90
52765;DHT22;38650;44.536;18.664;2024-01-15T04:32:15;1.80;99.90
52765;DHT22;38650;44.536;18.664;2024-01-15T04:34:41;1.80;99.90
52765;DHT22;38650;44.536;18.664;2024-01-15T04:37:07;1.80;99.90
52765;DHT22;38650;44.536;18.664;2024-01-15T04:39:32;1.90;99.90
52765;DHT22;38650;44.536;18.664;2024-01-15T04:41:58;1.90;99.90
52765;DHT22;38650;44.536;18.664;2024-01-15T04:44:23;1.90;99.90
52765;DHT22;38650;44.536;18.664;2024-01-15T04:46:49;1.90;99.90
52765;DHT22;38650;44.536;18.664;2024-01-15T04:49:15;1.90;99.90
52765;DHT22;38650;44.536;18.664;2024-01-15T04:51:40;2.00;99.90
52765;DHT22;38650;44.536;18.664;2024-01-15T04:54:06;2.00;99.90
52765;DHT22;38650;44.536;18.664;2024-01-15T04:56:32;2.00;99.90
52765;DHT22;38650;44.536;18.664;2024-01-15T04:58:57;2.10;99.90
52765;DHT22;38650;44.536;18.664;2024-01-15T05:01:23;2.10;99.90
52765;DHT22;38650;44.536;18.664;2024-01-15T05:03:48;2.10;99.90
52765;DHT22;38650;44.536;18.664;2024-01-15T05:06:15;2.10;99.90
52765;DHT22;38650;44.536;18.664;2024-01-15T05:08:41;2.10;99.90
52765;DHT22;38650;44.536;18.664;2024-01-15T05:11:06;2.20;99.90
52765;DHT22;38650;44.536;18.664;2024-01-15T05:13:32;2.20;99.90
52765;DHT22;38650;44.536;18.664;2024-01-15T05:15:58;2.30;99.90
52765;DHT22;38650;44.536;18.664;2024-01-15T05:18:24;2.30;99.90
52765;DHT22;38650;44.536;18.664;2024-01-15T05:20:49;2.40;99.90
52765;DHT22;38650;44.536;18.664;2024-01-15T05:23:15;2.30;99.90
52765;DHT22;38650;44.536;18.664;2024-01-15T05:25:40;2.40;99.90
52765;DHT22;38650;44.536;18.664;2024-01-15T05:28:06;2.40;99.90
52765;DHT22;38650;44.536;18.664;2024-01-15T05:30:32;2.40;99.90
52765;DHT22;38650;44.536;18.664;2024-01-15T05:32:57;2.50;99.90
52765;DHT22;38650;44.536;18.664;2024-01-15T05:35:25;2.50;99.90
52765;DHT22;38650;44.536;18.664;2024-01-15T05:37:51;2.50;99.90
52765;DHT22;38650;44.536;18.664;2024-01-15T05:40:17;2.50;99.90
52765;DHT22;38650;44.536;18.664;2024-01-15T05:42:42;2.50;99.90
52765;DHT22;38650;44.536;18.664;2024-01-15T05:45:08;2.50;99.90
52765;DHT22;38650;44.536;18.664;2024-01-15T05:47:34;2.50;99.90
52765;DHT22;38650;44.536;18.664;2024-01-15T05:50:01;2.50;99.90
52765;DHT22;38650;44.536;18.664;2024-01-15T05:52:27;2.50;99.90
52765;DHT22;38650;44.536;18.664;2024-01-15T05:54:52;2.50;99.90
52765;DHT22;38650;44.536;18.664;2024-01-15T05:57:18;2.50;99.90
52765;DHT22;38650;44.536;18.664;2024-01-15T05:59:44;2.60;99.90
52765;DHT22;38650;44.536;18.664;2024-01-15T06:02:10;2.70;99.90
52765;DHT22;38650;44.536;18.664;2024-01-15T06:04:36;2.80;99.90
52765;DHT22;38650;44.536;18.664;2024-01-15T06:07:02;2.80;99.90
52765;DHT22;38650;44.536;18.664;2024-01-15T06:09:28;2.90;99.90
52765;DHT22;38650;44.536;18.664;2024-01-15T06:11:54;2.90;99.90
52765;DHT22;38650;44.536;18.664;2024-01-15T06:14:20;2.90;99.90
52765;DHT22;38650;44.536;18.664;2024-01-15T06:16:46;3.00;99.90
52765;DHT22;38650;44.536;18.664;2024-01-15T06:19:11;3.00;99.90
52765;DHT22;38650;44.536;18.664;2024-01-15T06:21:37;3.10;99.90
52765;DHT22;38650;44.536;18.664;2024-01-15T06:24:03;3.10;99.90
52765;DHT22;38650;44.536;18.664;2024-01-15T06:26:29;3.20;99.90
52765;DHT22;38650;44.536;18.664;2024-01-15T06:28:55;3.20;99.90
52765;DHT22;38650;44.536;18.664;2024-01-15T06:31:21;3.30;99.90
52765;DHT22;38650;44.536;18.664;2024-01-15T06:33:46;3.40;99.90
52765;DHT22;38650;44.536;18.664;2024-01-15T06:36:13;3.40;99.90
52765;DHT22;38650;44.536;18.664;2024-01-15T06:38:40;3.40;99.90
52765;DHT22;38650;44.536;18.664;2024-01-15T06:41:05;3.50;99.90
52765;DHT22;38650;44.536;18.664;2024-01-15T06:43:31;3.50;99.90
52765;DHT22;38650;44.536;18.664;2024-01-15T06:45:57;3.50;99.90
52765;DHT22;38650;44.536;18.664;2024-01-15T06:48:22;3.60;99.90
52765;DHT22;38650;44.536;18.664;2024-01-15T06:50:48;3.60;99.90
52765;DHT22;38650;44.536;18.664;2024-01-15T06:53:14;3.60;99.90
52765;DHT22;38650;44.536;18.664;2024-01-15T06:55:39;3.60;99.90
52765;DHT22;38650;44.536;18.664;2024-01-15T06:58:05;3.60;99.90
52765;DHT22;38650;44.536;18.664;2024-01-15T07:00:31;3.60;99.90
52765;DHT22;38650;44.536;18.664;2024-01-15T07:02:56;3.70;99.90
52765;DHT22;38650;44.536;18.664;2024-01-15T07:05:23;3.70;99.90
52765;DHT22;38650;44.536;18.664;2024-01-15T07:07:48;3.70;99.90
52765;DHT22;38650;44.536;18.664;2024-01-15T07:10:14;3.70;99.90
52765;DHT22;38650;44.536;18.664;2024-01-15T07:12:42;3.80;99.90
52765;DHT22;38650;44.536;18.664;2024-01-15T07:15:08;3.80;99.90
52765;DHT22;38650;44.536;18.664;2024-01-15T07:17:35;3.90;99.90
52765;DHT22;38650;44.536;18.664;2024-01-15T07:20:01;3.90;99.90
52765;DHT22;38650;44.536;18.664;2024-01-15T07:22:27;4.00;99.90
52765;DHT22;38650;44.536;18.664;2024-01-15T07:24:53;4.00;99.90
52765;DHT22;38650;44.536;18.664;2024-01-15T07:27:18;4.20;99.90
52765;DHT22;38650;44.536;18.664;2024-01-15T07:29:44;4.20;99.90
52765;DHT22;38650;44.536;18.664;2024-01-15T07:32:10;4.30;99.90
52765;DHT22;38650;44.536;18.664;2024-01-15T07:34:35;4.30;99.90
52765;DHT22;38650;44.536;18.664;2024-01-15T07:37:02;4.40;99.90
52765;DHT22;38650;44.536;18.664;2024-01-15T07:39:27;4.40;99.90
52765;DHT22;38650;44.536;18.664;2024-01-15T07:41:54;4.30;99.90
52765;DHT22;38650;44.536;18.664;2024-01-15T07:44:20;4.30;99.90
52765;DHT22;38650;44.536;18.664;2024-01-15T07:46:48;4.30;99.90
52765;DHT22;38650;44.536;18.664;2024-01-15T07:49:14;4.30;99.90
52765;DHT22;38650;44.536;18.664;2024-01-15T07:51:40;4.40;99.90
52765;DHT22;38650;44.536;18.664;2024-01-15T07:54:06;4.40;99.90
52765;DHT22;38650;44.536;18.664;2024-01-15T07:56:32;4.50;99.90
52765;DHT22;38650;44.536;18.664;2024-01-15T07:58:58;4.50;99.90
52765;DHT22;38650;44.536;18.664;2024-01-15T08:01:24;4.60;99.90
52765;DHT22;38650;44.536;18.664;2024-01-15T08:03:50;4.60;99.90
52765;DHT22;38650;44.536;18.664;2024-01-15T08:06:15;4.70;99.90
52765;DHT22;38650;44.536;18.664;2024-01-15T08:08:41;4.70;99.90
52765;DHT22;38650;44.536;18.664;2024-01-15T08:11:07;4.60;99.90
52765;DHT22;38650;44.536;18.664;2024-01-15T08:13:32;4.70;99.90
52765;DHT22;38650;44.536;18.664;2024-01-15T08:15:58;4.70;99.90
52765;DHT22;38650;44.536;18.664;2024-01-15T08:18:24;4.70;99.90
52765;DHT22;38650;44.536;18.664;2024-01-15T08:20:50;4.70;99.90
52765;DHT22;38650;44.536;18.664;2024-01-15T08:23:17;4.70;99.90
52765;DHT22;38650;44.536;18.664;2024-01-15T08:25:43;4.70;99.90
52765;DHT22;38650;44.536;18.664;2024-01-15T08:28:08;4.80;99.90
52765;DHT22;38650;44.536;18.664;2024-01-15T08:30:34;4.80;99.90
52765;DHT22;38650;44.536;18.664;2024-01-15T08:33:00;4.80;99.90
52765;DHT22;38650;44.536;18.664;2024-01-15T08:35:26;4.90;99.90
52765;DHT22;38650;44.536;18.664;2024-01-15T08:37:54;5.00;99.90
52765;DHT22;38650;44.536;18.664;2024-01-15T08:40:20;5.00;99.90
52765;DHT22;38650;44.536;18.664;2024-01-15T08:42:46;5.10;99.90
52765;DHT22;38650;44.536;18.664;2024-01-15T08:45:13;5.20;99.90
52765;DHT22;38650;44.536;18.664;2024-01-15T08:47:39;5.20;99.90
52765;DHT22;38650;44.536;18.664;2024-01-15T08:50:05;5.30;99.90
52765;DHT22;38650;44.536;18.664;2024-01-15T08:52:31;5.40;99.90
52765;DHT22;38650;44.536;18.664;2024-01-15T08:54:57;5.50;99.90
52765;DHT22;38650;44.536;18.664;2024-01-15T08:57:23;5.70;99.90
52765;DHT22;38650;44.536;18.664;2024-01-15T08:59:48;5.80;99.90
52765;DHT22;38650;44.536;18.664;2024-01-15T09:02:14;5.90;99.90
52765;DHT22;38650;44.536;18.664;2024-01-15T09:04:41;5.90;99.90
52765;DHT22;38650;44.536;18.664;2024-01-15T09:07:07;5.90;99.90
52765;DHT22;38650;44.536;18.664;2024-01-15T09:09:33;5.90;99.90
52765;DHT22;38650;44.536;18.664;2024-01-15T09:11:59;6.00;99.90
52765;DHT22;38650;44.536;18.664;2024-01-15T09:14:25;5.90;99.90
52765;DHT22;38650;44.536;18.664;2024-01-15T09:16:52;5.90;99.90
52765;DHT22;38650;44.536;18.664;2024-01-15T09:19:18;6.00;99.90
52765;DHT22;38650;44.536;18.664;2024-01-15T09:21:44;6.00;99.90
52765;DHT22;38650;44.536;18.664;2024-01-15T09:24:11;6.00;99.90
52765;DHT22;38650;44.536;18.664;2024-01-15T09:26:37;6.00;99.90
52765;DHT22;38650;44.536;18.664;2024-01-15T09:29:02;6.10;99.90
52765;DHT22;38650;44.536;18.664;2024-01-15T09:31:28;6.20;99.90
52765;DHT22;38650;44.536;18.664;2024-01-15T09:33:54;6.30;99.90
52765;DHT22;38650;44.536;18.664;2024-01-15T09:36:24;6.40;99.90
52765;DHT22;38650;44.536;18.664;2024-01-15T09:38:51;6.30;99.90
52765;DHT22;38650;44.536;18.664;2024-01-15T09:41:17;6.20;99.90
52765;DHT22;38650;44.536;18.664;2024-01-15T09:43:43;6.30;99.90
52765;DHT22;38650;44.536;18.664;2024-01-15T09:46:09;6.40;99.90
52765;DHT22;38650;44.536;18.664;2024-01-15T09:48:35;6.50;99.90
52765;DHT22;38650;44.536;18.664;2024-01-15T09:51:05;6.60;99.90
52765;DHT22;38650;44.536;18.664;2024-01-15T09:53:32;6.80;99.90
52765;DHT22;38650;44.536;18.664;2024-01-15T09:55:59;6.80;99.90
52765;DHT22;38650;44.536;18.664;2024-01-15T09:58:25;6.80;99.90
52765;DHT22;38650;44.536;18.664;2024-01-15T10:00:52;6.70;99.90
52765;DHT22;38650;44.536;18.664;2024-01-15T10:03:18;6.60;99.90
52765;DHT22;38650;44.536;18.664;2024-01-15T10:05:44;6.70;99.90
52765;DHT22;38650;44.536;18.664;2024-01-15T10:08:09;6.70;99.90
52765;DHT22;38650;44.536;18.664;2024-01-15T10:10:36;6.70;99.90
52765;DHT22;38650;44.536;18.664;2024-01-15T10:13:04;6.70;99.90
52765;DHT22;38650;44.536;18.664;2024-01-15T10:15:34;6.80;99.90
52765;DHT22;38650;44.536;18.664;2024-01-15T10:18:02;6.90;99.90
52765;DHT22;38650;44.536;18.664;2024-01-15T10:20:28;7.00;99.90
52765;DHT22;38650;44.536;18.664;2024-01-15T10:22:53;7.00;99.90
52765;DHT22;38650;44.536;18.664;2024-01-15T10:25:20;7.00;99.90
52765;DHT22;38650;44.536;18.664;2024-01-15T10:28:08;7.00;99.90
52765;DHT22;38650;44.536;18.664;2024-01-15T10:30:35;6.90;99.90
52765;DHT22;38650;44.536;18.664;2024-01-15T10:33:03;6.90;99.90
52765;DHT22;38650;44.536;18.664;2024-01-15T10:35:29;6.80;99.90
52765;DHT22;38650;44.536;18.664;2024-01-15T10:37:55;6.80;99.90
52765;DHT22;38650;44.536;18.664;2024-01-15T10:40:21;6.70;99.90
52765;DHT22;38650;44.536;18.664;2024-01-15T10:42:47;6.60;99.90
52765;DHT22;38650;44.536;18.664;2024-01-15T10:45:13;6.50;99.90
52765;DHT22;38650;44.536;18.664;2024-01-15T10:47:40;6.60;99.90
52765;DHT22;38650;44.536;18.664;2024-01-15T10:50:07;6.70;99.90
52765;DHT22;38650;44.536;18.664;2024-01-15T10:52:35;6.70;99.90
52765;DHT22;38650;44.536;18.664;2024-01-15T10:55:03;6.80;99.90
52765;DHT22;38650;44.536;18.664;2024-01-15T10:57:30;6.80;99.90
52765;DHT22;38650;44.536;18.664;2024-01-15T10:59:55;6.90;99.90
52765;DHT22;38650;44.536;18.664;2024-01-15T11:02:21;6.80;99.90
52765;DHT22;38650;44.536;18.664;2024-01-15T11:04:48;6.60;99.90
52765;DHT22;38650;44.536;18.664;2024-01-15T11:07:14;6.50;99.90
52765;DHT22;38650;44.536;18.664;2024-01-15T11:09:40;6.60;99.90
52765;DHT22;38650;44.536;18.664;2024-01-15T11:12:13;6.60;99.90
52765;DHT22;38650;44.536;18.664;2024-01-15T11:14:46;6.60;99.90
52765;DHT22;38650;44.536;18.664;2024-01-15T11:17:13;6.60;99.90
52765;DHT22;38650;44.536;18.664;2024-01-15T11:19:42;6.60;99.90
52765;DHT22;38650;44.536;18.664;2024-01-15T11:22:10;6.60;99.90
52765;DHT22;38650;44.536;18.664;2024-01-15T11:24:40;6.60;99.90
52765;DHT22;38650;44.536;18.664;2024-01-15T11:27:07;6.60;99.90
52765;DHT22;38650;44.536;18.664;2024-01-15T11:29:35;6.50;99.90
52765;DHT22;38650;44.536;18.664;2024-01-15T11:32:02;6.50;99.90
52765;DHT22;38650;44.536;18.664;2024-01-15T11:34:55;6.60;99.90
52765;DHT22;38650;44.536;18.664;2024-01-15T11:37:24;6.60;99.90
52765;DHT22;38650;44.536;18.664;2024-01-15T11:39:54;6.40;99.90
52765;DHT22;38650;44.536;18.664;2024-01-15T11:42:21;6.20;99.90
52765;DHT22;38650;44.536;18.664;2024-01-15T11:44:47;6.30;99.90
52765;DHT22;38650;44.536;18.664;2024-01-15T11:47:13;6.40;99.90
52765;DHT22;38650;44.536;18.664;2024-01-15T11:50:02;6.50;99.90
52765;DHT22;38650;44.536;18.664;2024-01-15T11:52:35;6.70;99.90
52765;DHT22;38650;44.536;18.664;2024-01-15T11:55:22;6.70;99.90
52765;DHT22;38650;44.536;18.664;2024-01-15T11:57:52;6.70;99.90
52765;DHT22;38650;44.536;18.664;2024-01-15T12:00:20;6.80;99.90
52765;DHT22;38650;44.536;18.664;2024-01-15T12:02:48;6.90;99.90
52765;DHT22;38650;44.536;18.664;2024-01-15T12:05:18;6.90;99.90
52765;DHT22;38650;44.536;18.664;2024-01-15T12:07:45;7.10;99.90
52765;DHT22;38650;44.536;18.664;2024-01-15T12:10:13;7.20;99.90
52765;DHT22;38650;44.536;18.664;2024-01-15T12:13:09;7.20;99.90
52765;DHT22;38650;44.536;18.664;2024-01-15T12:15:36;7.10;99.90
52765;DHT22;38650;44.536;18.664;2024-01-15T12:18:02;7.00;99.90
52765;DHT22;38650;44.536;18.664;2024-01-15T12:20:32;7.10;99.90
52765;DHT22;38650;44.536;18.664;2024-01-15T12:22:58;7.10;99.90
52765;DHT22;38650;44.536;18.664;2024-01-15T12:25:24;7.20;99.90
52765;DHT22;38650;44.536;18.664;2024-01-15T12:27:51;7.00;99.90
52765;DHT22;38650;44.536;18.664;2024-01-15T12:30:17;7.20;99.90
52765;DHT22;38650;44.536;18.664;2024-01-15T12:32:44;7.20;99.90
52765;DHT22;38650;44.536;18.664;2024-01-15T12:35:10;7.30;99.90
52765;DHT22;38650;44.536;18.664;2024-01-15T12:37:37;7.40;99.90
52765;DHT22;38650;44.536;18.664;2024-01-15T12:40:04;7.50;99.90
52765;DHT22;38650;44.536;18.664;2024-01-15T12:42:32;7.70;99.90
52765;DHT22;38650;44.536;18.664;2024-01-15T12:44:59;7.90;99.90
52765;DHT22;38650;44.536;18.664;2024-01-15T12:47:25;8.00;99.90
52765;DHT22;38650;44.536;18.664;2024-01-15T12:49:52;8.00;99.90
52765;DHT22;38650;44.536;18.664;2024-01-15T12:52:21;8.10;99.90
52765;DHT22;38650;44.536;18.664;2024-01-15T12:54:50;8.10;99.90
52765;DHT22;38650;44.536;18.664;2024-01-15T12:57:16;8.00;99.90
52765;DHT22;38650;44.536;18.664;2024-01-15T12:59:43;8.10;99.90
52765;DHT22;38650;44.536;18.664;2024-01-15T13:02:10;8.20;99.90
52765;DHT22;38650;44.536;18.664;2024-01-15T13:04:36;8.20;99.90
52765;DHT22;38650;44.536;18.664;2024-01-15T13:07:01;8.10;99.90
52765;DHT22;38650;44.536;18.664;2024-01-15T13:09:27;8.00;99.90
52765;DHT22;38650;44.536;18.664;2024-01-15T13:11:55;8.00;99.90
52765;DHT22;38650;44.536;18.664;2024-01-15T13:14:21;8.00;99.90
52765;DHT22;38650;44.536;18.664;2024-01-15T13:16:46;7.90;99.90
52765;DHT22;38650;44.536;18.664;2024-01-15T13:19:12;7.70;99.90
52765;DHT22;38650;44.536;18.664;2024-01-15T13:21:42;7.50;99.90
52765;DHT22;38650;44.536;18.664;2024-01-15T13:24:08;7.70;99.90
52765;DHT22;38650;44.536;18.664;2024-01-15T13:26:34;7.80;99.90
52765;DHT22;38650;44.536;18.664;2024-01-15T13:29:02;7.80;99.90
52765;DHT22;38650;44.536;18.664;2024-01-15T13:31:29;7.70;99.90
52765;DHT22;38650;44.536;18.664;2024-01-15T13:33:55;7.60;99.90
52765;DHT22;38650;44.536;18.664;2024-01-15T13:36:22;7.60;99.90
52765;DHT22;38650;44.536;18.664;2024-01-15T13:38:52;7.60;99.90
52765;DHT22;38650;44.536;18.664;2024-01-15T13:41:19;7.60;99.90
52765;DHT22;38650;44.536;18.664;2024-01-15T13:43:49;7.50;99.90
52765;DHT22;38650;44.536;18.664;2024-01-15T13:46:16;7.50;99.90
52765;DHT22;38650;44.536;18.664;2024-01-15T13:48:43;7.50;99.90
52765;DHT22;38650;44.536;18.664;2024-01-15T13:51:09;7.50;99.90
52765;DHT22;38650;44.536;18.664;2024-01-15T13:53:35;7.60;99.90
52765;DHT22;38650;44.536;18.664;2024-01-15T13:56:00;7.70;99.90
52765;DHT22;38650;44.536;18.664;2024-01-15T13:58:26;7.70;99.90
52765;DHT22;38650;44.536;18.664;2024-01-15T14:00:52;7.70;99.90
52765;DHT22;38650;44.536;18.664;2024-01-15T14:03:18;7.60;99.90
52765;DHT22;38650;44.536;18.664;2024-01-15T14:05:44;7.60;99.90
52765;DHT22;38650;44.536;18.664;2024-01-15T14:08:10;7.40;99.90
52765;DHT22;38650;44.536;18.664;2024-01-15T14:10:36;7.20;99.90
52765;DHT22;38650;44.536;18.664;2024-01-15T14:13:03;7.10;99.90
52765;DHT22;38650;44.536;18.664;2024-01-15T14:15:29;7.10;99.90
52765;DHT22;38650;44.536;18.664;2024-01-15T14:17:55;7.00;99.90
52765;DHT22;38650;44.536;18.664;2024-01-15T14:20:20;7.00;99.90
52765;DHT22;38650;44.536;18.664;2024-01-15T14:22:46;7.10;99.90
52765;DHT22;38650;44.536;18.664;2024-01-15T14:25:12;7.10;99.90
52765;DHT22;38650;44.536;18.664;2024-01-15T14:27:37;7.00;99.90
52765;DHT22;38650;44.536;18.664;2024-01-15T14:30:03;7.10;99.90
52765;DHT22;38650;44.536;18.664;2024-01-15T14:32:31;7.20;99.90
52765;DHT22;38650;44.536;18.664;2024-01-15T14:34:57;7.20;99.90
52765;DHT22;38650;44.536;18.664;2024-01-15T14:37:22;7.20;99.90
52765;DHT22;38650;44.536;18.664;2024-01-15T14:39:48;7.20;99.90
52765;DHT22;38650;44.536;18.664;2024-01-15T14:42:14;7.10;99.90
52765;DHT22;38650;44.536;18.664;2024-01-15T14:44:39;7.10;99.90
52765;DHT22;38650;44.536;18.664;2024-01-15T14:47:06;7.10;99.90
52765;DHT22;38650;44.536;18.664;2024-01-15T14:49:33;7.00;99.90
52765;DHT22;38650;44.536;18.664;2024-01-15T14:51:59;7.00;99.90
52765;DHT22;38650;44.536;18.664;2024-01-15T14:54:25;7.00;99.90
52765;DHT22;38650;44.536;18.664;2024-01-15T14:56:51;6.90;99.90
52765;DHT22;38650;44.536;18.664;2024-01-15T14:59:17;6.70;99.90
52765;DHT22;38650;44.536;18.664;2024-01-15T15:01:43;6.80;99.90
52765;DHT22;38650;44.536;18.664;2024-01-15T15:04:08;6.90;99.90
52765;DHT22;38650;44.536;18.664;2024-01-15T15:06:36;6.90;99.90
52765;DHT22;38650;44.536;18.664;2024-01-15T15:09:02;6.80;99.90
52765;DHT22;38650;44.536;18.664;2024-01-15T15:11:34;6.80;99.90
52765;DHT22;38650;44.536;18.664;2024-01-15T15:14:00;6.50;99.90
52765;DHT22;38650;44.536;18.664;2024-01-15T15:16:26;6.40;99.90
52765;DHT22;38650;44.536;18.664;2024-01-15T15:18:53;6.50;99.90
52765;DHT22;38650;44.536;18.664;2024-01-15T15:21:20;6.50;99.90
52765;DHT22;38650;44.536;18.664;2024-01-15T15:23:46;6.50;99.90
52765;DHT22;38650;44.536;18.664;2024-01-15T15:26:13;6.50;99.90